Time;durP1;ratioP1;P1;durP2;ratioP2;P2;SDS_P1;SDS_P2;PMS_P1;PMS_P2;Temp;Humidity;BMP_temperature;BMP_pressure;BME280_temperature;BME280_humidity;BME280_pressure;Samples;Min_cycle;Max_cycle;Signal;HPM_P1;HPM_P2
2021/10/26 00:01:33;;;;;;;15.00;6.07;;;;;;;;;;5076298;28;20028;-94
2021/10/26 00:03:59;;;;;;;12.75;5.97;;;;;;;;;;5076095;28;20377;-94
2021/10/26 00:06:25;;;;;;;16.77;6.07;;;;;;;;;;5076175;28;20050;-92
2021/10/26 00:08:52;;;;;;;14.13;6.10;;;;;;;;;;5075706;28;20055;-94
2021/10/26 00:11:18;;;;;;;11.98;5.47;;;;;;;;;;5076042;28;20020;-93
2021/10/26 00:13:44;;;;;;;9.40;4.57;;;;;;;;;;5076057;28;20055;-93
2021/10/26 00:16:10;;;;;;;9.98;4.70;;;;;;;;;;5075810;28;20426;-95
2021/10/26 00:18:39;;;;;;;10.35;4.32;;;;;;;;;;5075745;28;20115;-93
2021/10/26 00:21:05;;;;;;;17.02;6.03;;;;;;;;;;5075845;28;20074;-92
2021/10/26 00:23:31;;;;;;;11.65;4.65;;;;;;;;;;5075757;28;20020;-93
2021/10/26 00:25:58;;;;;;;11.70;4.82;;;;;;;;;;5075718;28;20084;-93
2021/10/26 00:28:24;;;;;;;9.85;4.80;;;;;;;;;;5076740;28;20028;-95
2021/10/26 00:30:51;;;;;;;9.52;4.40;;;;;;;;;;5075722;28;20047;-94
2021/10/26 00:33:22;;;;;;;13.45;4.80;;;;;;;;;;5075517;28;20074;-93
2021/10/26 00:35:48;;;;;;;13.02;5.07;;;;;;;;;;5075468;28;20028;-92
2021/10/26 00:38:14;;;;;;;11.88;4.50;;;;;;;;;;5075488;28;20024;-94
2021/10/26 00:40:40;;;;;;;14.10;6.72;;;;;;;;;;5075515;28;20103;-93
2021/10/26 00:43:09;;;;;;;13.07;6.00;;;;;;;;;;5075482;28;20506;-93
2021/10/26 00:45:35;;;;;;;12.80;5.97;;;;;;;;;;5075774;28;20032;-94
2021/10/26 00:48:04;;;;;;;10.43;5.38;;;;;;;;;;5075342;28;20020;-93
2021/10/26 00:50:32;;;;;;;14.27;6.30;;;;;;;;;;5075289;28;20393;-94
2021/10/26 00:53:01;;;;;;;13.57;4.35;;;;;;;;;;5075282;28;20473;-93
2021/10/26 00:55:27;;;;;;;13.30;4.40;;;;;;;;;;5075115;28;20025;-93
2021/10/26 00:57:53;;;;;;;10.45;5.35;;;;;;;;;;5075195;28;20104;-93
2021/10/26 01:00:22;;;;;;;13.00;4.13;;;;;;;;;;5074869;28;20138;-94
2021/10/26 01:02:48;;;;;;;13.07;5.00;;;;;;;;;;5075027;28;20020;-95
2021/10/26 01:05:15;;;;;;;11.77;4.63;;;;;;;;;;5074886;28;20509;-94
2021/10/26 01:07:42;;;;;;;11.45;5.03;;;;;;;;;;5074917;28;20112;-93
2021/10/26 01:10:11;;;;;;;13.27;5.93;;;;;;;;;;5074959;28;20032;-92
2021/10/26 01:12:40;;;;;;;11.85;6.05;;;;;;;;;;5074585;28;20025;-94
2021/10/26 01:15:09;;;;;;;11.95;6.15;;;;;;;;;;5075464;28;20035;-92
2021/10/26 01:17:35;;;;;;;13.45;5.38;;;;;;;;;;5074657;28;20017;-93
2021/10/26 01:20:03;;;;;;;14.77;5.07;;;;;;;;;;5074778;28;20020;-93
2021/10/26 01:22:30;;;;;;;8.10;4.60;;;;;;;;;;5074902;28;20035;-92
2021/10/26 01:24:56;;;;;;;14.38;4.40;;;;;;;;;;5075026;28;20473;-93
2021/10/26 01:27:23;;;;;;;9.27;4.18;;;;;;;;;;5074769;28;20036;-93
2021/10/26 01:29:52;;;;;;;7.22;4.05;;;;;;;;;;5074540;28;20500;-93
2021/10/26 01:32:20;;;;;;;10.23;4.68;;;;;;;;;;5074231;28;20021;-94
2021/10/26 01:34:46;;;;;;;9.27;4.35;;;;;;;;;;5074323;28;20021;-93
2021/10/26 01:37:13;;;;;;;10.25;5.18;;;;;;;;;;5074723;28;20123;-93
2021/10/26 01:39:39;;;;;;;15.60;7.30;;;;;;;;;;5074619;28;20020;-93
2021/10/26 01:42:09;;;;;;;15.10;6.18;;;;;;;;;;5074344;28;20017;-92
2021/10/26 01:44:35;;;;;;;26.88;7.90;;;;;;;;;;5074229;28;20162;-93
2021/10/26 01:47:02;;;;;;;11.82;6.20;;;;;;;;;;5074079;28;20035;-93
2021/10/26 01:49:28;;;;;;;11.55;5.47;;;;;;;;;;5074053;28;20025;-95
2021/10/26 01:51:54;;;;;;;10.77;5.93;;;;;;;;;;5074357;28;20123;-93
2021/10/26 05:23:23;;;;;;;6.60;3.47;;;;;;;;;;4879423;28;20035;-92
2021/10/26 05:25:51;;;;;;;9.07;4.25;;;;;;;;;;5074619;28;20393;-92
2021/10/26 05:28:17;;;;;;;8.27;4.10;;;;;;;;;;5074651;28;20047;-92
2021/10/26 05:30:43;;;;;;;12.15;4.03;;;;;;;;;;5074751;28;20028;-95
2021/10/26 05:33:12;;;;;;;11.63;4.03;;;;;;;;;;5074952;28;20039;-94
2021/10/26 05:35:38;;;;;;;8.32;3.83;;;;;;;;;;5075119;28;20056;-95
2021/10/26 05:38:05;;;;;;;10.63;4.63;;;;;;;;;;5074755;28;20024;-93
2021/10/26 05:40:31;;;;;;;10.90;4.15;;;;;;;;;;5074331;28;20024;-93
2021/10/26 05:42:59;;;;;;;11.73;3.50;;;;;;;;;;5074249;28;20448;-93
2021/10/26 05:45:25;;;;;;;8.25;3.25;;;;;;;;;;5074277;28;20024;-95
2021/10/26 05:47:51;;;;;;;9.45;3.53;;;;;;;;;;5074245;28;20115;-94
2021/10/26 05:50:18;;;;;;;13.73;3.65;;;;;;;;;;5074253;28;20021;-94
2021/10/26 05:52:44;;;;;;;11.93;3.17;;;;;;;;;;5074027;28;20033;-94
2021/10/26 05:55:13;;;;;;;11.48;3.40;;;;;;;;;;5073755;28;20029;-95
2021/10/26 05:57:39;;;;;;;11.10;3.47;;;;;;;;;;5074105;28;20051;-94
2021/10/26 06:00:06;;;;;;;10.30;3.40;;;;;;;;;;5074441;28;20462;-93
2021/10/26 06:02:35;;;;;;;11.05;3.20;;;;;;;;;;5074276;28;20390;-94
2021/10/26 06:05:01;;;;;;;10.50;3.67;;;;;;;;;;5074187;28;20390;-94
2021/10/26 06:07:27;;;;;;;9.40;3.60;;;;;;;;;;5073988;28;20474;-94
2021/10/26 06:09:54;;;;;;;7.72;3.47;;;;;;;;;;5073911;28;20071;-94
2021/10/26 06:12:28;;;;;;;11.07;3.50;;;;;;;;;;5073700;28;20137;-94
2021/10/26 06:14:54;;;;;;;11.73;3.58;;;;;;;;;;5074611;28;20028;-94
2021/10/26 06:17:23;;;;;;;7.75;3.22;;;;;;;;;;5073694;28;20540;-95
2021/10/26 06:19:49;;;;;;;9.52;2.60;;;;;;;;;;5073626;28;20084;-94
2021/10/26 06:22:16;;;;;;;10.70;3.30;;;;;;;;;;5073419;28;20051;-93
2021/10/26 06:24:46;;;;;;;11.00;3.55;;;;;;;;;;5073921;28;20024;-93
2021/10/26 06:27:14;;;;;;;6.78;3.13;;;;;;;;;;5073635;28;20032;-95
2021/10/26 06:29:43;;;;;;;8.30;3.33;;;;;;;;;;5073402;28;20066;-94
2021/10/26 06:32:10;;;;;;;11.07;3.50;;;;;;;;;;5073657;28;20025;-94
2021/10/26 06:34:36;;;;;;;14.25;4.20;;;;;;;;;;5073797;28;20112;-95
2021/10/26 06:37:03;;;;;;;10.07;4.03;;;;;;;;;;5073854;28;20478;-95
2021/10/26 06:39:31;;;;;;;14.07;4.53;;;;;;;;;;5074246;28;20017;-96
2021/10/26 06:42:05;;;;;;;9.90;4.10;;;;;;;;;;5073823;28;20111;-95
2021/10/26 06:44:34;;;;;;;9.70;4.22;;;;;;;;;;5074014;28;20063;-95
2021/10/26 06:47:03;;;;;;;9.32;3.97;;;;;;;;;;5074055;28;20077;-95
2021/10/26 06:49:31;;;;;;;8.82;3.92;;;;;;;;;;5073229;28;20027;-95
2021/10/26 06:52:00;;;;;;;10.10;4.00;;;;;;;;;;5074344;28;20558;-94
2021/10/26 06:54:26;;;;;;;14.35;3.90;;;;;;;;;;5073424;28;20025;-95
2021/10/26 06:56:52;;;;;;;11.05;4.13;;;;;;;;;;5073420;28;20027;-92
2021/10/26 06:59:21;;;;;;;8.85;3.80;;;;;;;;;;5073921;28;20547;-94
2021/10/26 07:01:47;;;;;;;8.23;4.10;;;;;;;;;;5073783;28;20436;-94
2021/10/26 07:04:14;;;;;;;13.43;3.70;;;;;;;;;;5073361;28;20490;-95
2021/10/26 07:06:43;;;;;;;8.98;3.67;;;;;;;;;;5073383;28;20034;-93
2021/10/26 07:09:17;;;;;;;14.55;4.32;;;;;;;;;;5073278;28;20112;-95
2021/10/26 07:11:43;;;;;;;6.53;4.07;;;;;;;;;;5073802;28;20032;-94
2021/10/26 07:14:12;;;;;;;10.30;5.22;;;;;;;;;;5073233;28;20119;-93
2021/10/26 07:16:56;;;;;;;11.70;5.22;;;;;;;;;;5073288;28;20406;-93
2021/10/26 07:19:23;;;;;;;11.35;5.32;;;;;;;;;;5074348;28;20465;-93
2021/10/26 07:21:52;;;;;;;16.98;5.75;;;;;;;;;;5073039;28;20450;-94
2021/10/26 07:24:20;;;;;;;13.48;5.60;;;;;;;;;;5073058;28;20541;-95
2021/10/26 07:26:46;;;;;;;10.48;4.60;;;;;;;;;;5073167;28;20071;-94
2021/10/26 07:29:13;;;;;;;8.63;3.70;;;;;;;;;;5073532;28;20054;-94
2021/10/26 07:31:41;;;;;;;10.18;4.15;;;;;;;;;;5074597;28;20406;-93
2021/10/26 07:34:15;;;;;;;8.82;3.45;;;;;;;;;;5076985;28;20054;-94
2021/10/26 07:36:47;;;;;;;11.15;3.50;;;;;;;;;;5076643;28;20031;-94
2021/10/26 07:41:52;;;;;;;13.45;4.53;;;;;;;;;;5077804;28;19909;-93
2021/10/26 07:44:21;;;;;;;9.63;3.20;;;;;;;;;;5076584;28;20021;-93
2021/10/26 07:46:54;;;;;;;9.45;3.75;;;;;;;;;;5076171;28;20024;-94
2021/10/26 07:49:21;;;;;;;8.05;3.17;;;;;;;;;;5076477;28;20158;-94
2021/10/26 07:51:49;;;;;;;7.85;2.90;;;;;;;;;;5076190;28;20115;-94
2021/10/26 07:54:15;;;;;;;6.40;2.85;;;;;;;;;;5077285;28;20390;-94
2021/10/26 07:56:42;;;;;;;19.08;4.15;;;;;;;;;;5076360;28;20032;-93
2021/10/26 07:59:08;;;;;;;11.32;3.40;;;;;;;;;;5076525;28;20017;-92
2021/10/26 08:01:34;;;;;;;9.43;3.10;;;;;;;;;;5076606;28;20074;-94
2021/10/26 08:04:03;;;;;;;11.80;3.75;;;;;;;;;;5076750;28;20035;-94
2021/10/26 08:06:31;;;;;;;4.72;3.05;;;;;;;;;;5077065;28;20099;-95
2021/10/26 08:09:05;;;;;;;11.52;3.30;;;;;;;;;;5076799;28;20052;-94
2021/10/26 08:11:35;;;;;;;8.13;3.47;;;;;;;;;;5076338;28;20032;-94
2021/10/26 08:14:04;;;;;;;8.45;3.15;;;;;;;;;;5076379;28;20561;-93
2021/10/26 08:16:32;;;;;;;8.80;3.42;;;;;;;;;;5075929;28;20393;-94
2021/10/26 08:19:03;;;;;;;12.25;4.55;;;;;;;;;;5076381;28;20023;-94
2021/10/26 08:21:38;;;;;;;9.83;3.87;;;;;;;;;;5077031;28;20510;-93
2021/10/26 08:24:05;;;;;;;10.45;3.85;;;;;;;;;;5076234;28;20485;-93
2021/10/26 08:26:45;;;;;;;14.68;3.88;;;;;;;;;;5076562;28;20074;-94
2021/10/26 08:34:46;;;;;;;8.20;3.45;;;;;;;;;;5076685;28;20196;-93
2021/10/26 08:37:14;;;;;;;10.50;3.10;;;;;;;;;;5076711;28;20358;-94
2021/10/26 08:39:43;;;;;;;11.48;3.60;;;;;;;;;;5075686;28;20021;-92
2021/10/26 08:42:15;;;;;;;7.18;3.30;;;;;;;;;;5075878;28;20020;-94
2021/10/26 08:44:44;;;;;;;;;;;;;;;;;;5075735;28;20028;-94
2021/10/26 08:47:14;;;;;;;8.10;3.00;;;;;;;;;;5075491;28;20328;-95
2021/10/26 08:49:43;;;;;;;8.68;3.13;;;;;;;;;;5075312;28;20021;-93
2021/10/26 08:52:12;;;;;;;7.75;3.45;;;;;;;;;;5075907;28;20056;-93
2021/10/26 08:54:40;;;;;;;11.23;3.90;;;;;;;;;;5075322;28;20021;-93
2021/10/26 08:57:07;;;;;;;8.82;3.83;;;;;;;;;;5075260;28;20025;-94
2021/10/26 08:59:33;;;;;;;8.60;3.42;;;;;;;;;;5075246;28;20024;-93
2021/10/26 09:02:02;;;;;;;8.05;4.00;;;;;;;;;;5075212;28;20032;-93
2021/10/26 09:04:34;;;;;;;7.53;3.17;;;;;;;;;;5075142;28;20088;-94
2021/10/26 09:07:09;;;;;;;17.00;5.30;;;;;;;;;;5074999;28;20025;-93
2021/10/26 09:09:41;;;;;;;8.75;3.83;;;;;;;;;;5075933;28;20378;-92
2021/10/26 09:17:33;;;;;;;10.63;3.95;;;;;;;;;;5076215;28;20082;-94
2021/10/26 09:20:03;;;;;;;10.15;4.68;;;;;;;;;;5074889;28;20116;-94
2021/10/26 09:22:33;;;;;;;8.43;4.10;;;;;;;;;;5074652;28;20079;-93
2021/10/26 09:25:12;;;;;;;15.52;4.22;;;;;;;;;;5074734;28;20116;-93
2021/10/26 09:27:45;;;;;;;7.68;4.10;;;;;;;;;;5074763;28;20025;-92
2021/10/26 09:30:17;;;;;;;11.88;5.00;;;;;;;;;;5074593;28;20024;-93
2021/10/26 09:32:44;;;;;;;;;;;;;;;;;;5075306;28;20115;-95
2021/10/26 09:35:30;;;;;;;10.18;4.60;;;;;;;;;;5074256;28;19916;-94
2021/10/26 09:38:05;;;;;;;10.85;4.43;;;;;;;;;;5074634;28;20028;-93
2021/10/26 09:40:43;;;;;;;11.70;5.00;;;;;;;;;;5074299;28;20034;-93
2021/10/26 09:43:13;;;;;;;8.63;4.65;;;;;;;;;;5074216;28;20112;-92
2021/10/26 09:45:42;;;;;;;14.32;4.90;;;;;;;;;;5074220;28;20020;-94
2021/10/26 09:48:12;;;;;;;7.80;4.40;;;;;;;;;;5074578;28;20468;-94
2021/10/26 09:50:43;;;;;;;10.30;3.97;;;;;;;;;;5074495;28;20074;-92
2021/10/26 09:53:12;;;;;;;;;;;;;;;;;;5074523;28;20035;-94
2021/10/26 09:55:50;;;;;;;8.00;3.90;;;;;;;;;;5073643;28;19908;-92
2021/10/26 09:58:20;;;;;;;7.90;4.00;;;;;;;;;;5074150;28;20027;-92
2021/10/26 10:00:50;;;;;;;7.90;3.72;;;;;;;;;;5073975;28;20170;-92
2021/10/26 10:03:16;;;;;;;8.00;4.10;;;;;;;;;;5074190;28;20029;-94
2021/10/26 10:05:43;;;;;;;11.27;3.30;;;;;;;;;;5073845;28;20058;-94
2021/10/26 10:08:30;;;;;;;12.32;4.57;;;;;;;;;;5073849;28;20082;-94
2021/10/26 10:11:10;;;;;;;10.85;3.80;;;;;;;;;;5063475;28;20036;-95
2021/10/26 10:13:40;;;;;;;10.63;3.80;;;;;;;;;;5074497;28;20390;-92
2021/10/26 10:16:13;;;;;;;7.78;3.30;;;;;;;;;;5073508;28;20035;-93
2021/10/26 10:18:42;;;;;;;8.23;3.13;;;;;;;;;;5073711;28;20017;-94
2021/10/26 10:21:16;;;;;;;6.95;3.22;;;;;;;;;;5073586;28;20025;-94
2021/10/26 10:23:43;;;;;;;8.27;3.20;;;;;;;;;;5074081;28;20045;-94
2021/10/26 10:26:13;;;;;;;5.72;3.15;;;;;;;;;;5073874;28;20355;-95
2021/10/26 10:28:44;;;;;;;9.68;3.38;;;;;;;;;;5073551;28;20028;-93
2021/10/26 10:31:13;;;;;;;9.32;3.35;;;;;;;;;;5073819;28;20052;-92
2021/10/26 10:33:42;;;;;;;10.93;3.15;;;;;;;;;;5073442;28;20020;-92
2021/10/26 10:36:10;;;;;;;10.48;3.83;;;;;;;;;;5073250;28;20048;-92
2021/10/26 10:38:36;;;;;;;6.63;3.50;;;;;;;;;;5073646;28;20063;-94
2021/10/26 10:41:23;;;;;;;10.82;3.47;;;;;;;;;;5073597;28;20027;-91
2021/10/26 10:43:50;;;;;;;6.70;3.42;;;;;;;;;;5073330;28;20025;-94
2021/10/26 10:46:36;;;;;;;7.63;3.78;;;;;;;;;;5074250;28;20031;-92
2021/10/26 10:49:23;;;;;;;7.90;3.00;;;;;;;;;;5073454;28;20085;-93
2021/10/26 10:51:59;;;;;;;5.22;3.38;;;;;;;;;;5073483;28;20074;-93
2021/10/26 10:54:38;;;;;;;9.40;3.72;;;;;;;;;;5073373;28;20036;-93
2021/10/26 10:57:25;;;;;;;11.55;3.40;;;;;;;;;;5073444;28;20025;-92
2021/10/26 10:59:52;;;;;;;6.97;3.92;;;;;;;;;;5073287;28;20474;-92
2021/10/26 11:02:24;;;;;;;4.22;3.45;;;;;;;;;;5073113;28;20024;-93
2021/10/26 11:04:51;;;;;;;6.63;3.30;;;;;;;;;;5073398;28;20029;-93
2021/10/26 11:07:38;;;;;;;8.95;3.35;;;;;;;;;;5076004;28;20059;-92
2021/10/26 11:10:04;;;;;;;7.03;4.00;;;;;;;;;;5077923;28;20044;-93
2021/10/26 11:12:32;;;;;;;6.65;3.38;;;;;;;;;;5077053;28;20038;-93
2021/10/26 11:15:00;;;;;;;8.07;3.58;;;;;;;;;;5077136;28;20047;-93
2021/10/26 11:17:36;;;;;;;9.02;3.40;;;;;;;;;;5078219;28;20046;-94
2021/10/26 11:20:05;;;;;;;4.95;3.08;;;;;;;;;;5077112;28;20090;-93
2021/10/26 11:22:50;;;;;;;6.32;3.00;;;;;;;;;;5076675;28;20048;-93
2021/10/26 11:25:34;;;;;;;6.38;3.08;;;;;;;;;;5076743;28;20027;-94
2021/10/26 11:28:02;;;;;;;7.20;2.92;;;;;;;;;;5077134;28;20480;-94
2021/10/26 11:30:28;;;;;;;6.20;2.53;;;;;;;;;;5076737;28;20025;-92
2021/10/26 11:33:13;;;;;;;8.30;2.70;;;;;;;;;;5076726;28;20036;-93
2021/10/26 11:35:42;;;;;;;5.53;2.10;;;;;;;;;;5076569;28;20054;-93
2021/10/26 11:38:09;;;;;;;6.15;2.20;;;;;;;;;;5076801;28;20020;-92
2021/10/26 11:40:35;;;;;;;6.70;2.17;;;;;;;;;;5076591;28;20102;-91
2021/10/26 11:43:04;;;;;;;5.00;2.40;;;;;;;;;;5076687;28;20024;-93
2021/10/26 11:45:32;;;;;;;7.25;2.47;;;;;;;;;;5076312;28;20111;-93
2021/10/26 11:47:58;;;;;;;6.10;2.30;;;;;;;;;;5076249;28;20494;-94
2021/10/26 11:50:24;;;;;;;7.38;2.15;;;;;;;;;;5076541;28;20035;-92
2021/10/26 11:52:50;;;;;;;8.95;2.90;;;;;;;;;;5076271;28;20111;-94
2021/10/26 11:55:29;;;;;;;6.07;2.38;;;;;;;;;;5076961;28;20063;-93
2021/10/26 11:57:56;;;;;;;8.88;2.90;;;;;;;;;;5076393;28;20039;-92
2021/10/26 12:00:23;;;;;;;3.63;1.90;;;;;;;;;;5076367;28;20032;-93
2021/10/26 12:02:49;;;;;;;9.00;2.53;;;;;;;;;;5076485;28;20025;-93
2021/10/26 12:05:20;;;;;;;6.72;2.67;;;;;;;;;;5076833;28;20032;-92
2021/10/26 12:07:53;;;;;;;8.00;2.40;;;;;;;;;;5076663;28;20027;-94
2021/10/26 12:10:23;;;;;;;6.25;2.40;;;;;;;;;;5076178;28;20029;-93
2021/10/26 12:12:50;;;;;;;12.38;2.45;;;;;;;;;;5076609;28;20027;-92
2021/10/26 12:15:16;;;;;;;7.50;2.45;;;;;;;;;;5075855;28;20028;-92
2021/10/26 12:17:44;;;;;;;7.50;2.58;;;;;;;;;;5075613;28;20056;-93
2021/10/26 12:20:22;;;;;;;6.38;2.40;;;;;;;;;;5075990;28;20031;-95
2021/10/26 12:22:53;;;;;;;10.15;2.50;;;;;;;;;;5076269;28;20048;-94
2021/10/26 12:25:26;;;;;;;;;;;;;;;;;;5076093;28;20025;-94
2021/10/26 12:28:00;;;;;;;6.55;2.30;;;;;;;;;;5076098;28;19904;-94
2021/10/26 12:30:34;;;;;;;10.13;2.45;;;;;;;;;;5076040;28;20051;-94
2021/10/26 12:33:03;;;;;;;10.48;2.70;;;;;;;;;;5076331;28;20065;-93
2021/10/26 12:35:47;;;;;;;8.52;2.28;;;;;;;;;;5076162;28;20033;-93
2021/10/26 12:38:25;;;;;;;10.02;2.20;;;;;;;;;;5076239;28;20013;-93
2021/10/26 12:40:52;;;;;;;7.38;2.78;;;;;;;;;;5076228;28;20115;-92
2021/10/26 12:43:23;;;;;;;7.13;2.97;;;;;;;;;;5076038;28;20059;-95
2021/10/26 12:45:52;;;;;;;7.77;2.37;;;;;;;;;;5076034;28;20040;-94
2021/10/26 12:48:23;;;;;;;9.15;2.38;;;;;;;;;;5075788;28;20621;-93
2021/10/26 12:51:02;;;;;;;9.70;3.15;;;;;;;;;;5075955;28;20017;-95
2021/10/26 12:53:31;;;;;;;9.50;3.00;;;;;;;;;;5075634;28;20592;-94
2021/10/26 12:55:59;;;;;;;10.77;3.42;;;;;;;;;;5075537;28;20124;-93
2021/10/26 12:58:33;;;;;;;12.90;3.60;;;;;;;;;;5075879;28;20032;-95
2021/10/26 13:00:59;;;;;;;9.65;4.03;;;;;;;;;;5075791;28;20077;-93
2021/10/26 13:03:26;;;;;;;10.50;3.58;;;;;;;;;;5075355;28;20036;-94
2021/10/26 13:05:56;;;;;;;9.90;4.00;;;;;;;;;;5075011;28;20029;-93
2021/10/26 13:08:25;;;;;;;9.02;4.38;;;;;;;;;;5075561;28;20029;-94
2021/10/26 13:10:53;;;;;;;10.15;4.40;;;;;;;;;;5075988;28;20031;-94
2021/10/26 13:13:26;;;;;;;7.80;3.85;;;;;;;;;;5075526;28;20077;-94
2021/10/26 13:15:55;;;;;;;8.55;3.53;;;;;;;;;;5075592;28;20531;-95
2021/10/26 13:18:24;;;;;;;7.07;3.55;;;;;;;;;;5075395;28;20108;-95
2021/10/26 13:20:53;;;;;;;7.45;3.30;;;;;;;;;;5075655;28;20531;-94
2021/10/26 13:23:33;;;;;;;9.95;3.70;;;;;;;;;;5075207;28;20425;-94
2021/10/26 13:26:02;;;;;;;5.88;3.33;;;;;;;;;;5075554;28;20111;-93
2021/10/26 13:28:36;;;;;;;6.15;2.88;;;;;;;;;;5074666;28;20029;-93
2021/10/26 13:31:06;;;;;;;11.23;3.35;;;;;;;;;;5075199;28;20025;-94
2021/10/26 13:33:43;;;;;;;7.53;3.08;;;;;;;;;;5075232;28;20028;-95
2021/10/26 13:36:13;;;;;;;8.48;3.22;;;;;;;;;;5074885;28;20500;-93
2021/10/26 13:38:43;;;;;;;5.03;2.15;;;;;;;;;;5075127;28;20105;-93
2021/10/26 13:41:14;;;;;;;8.50;2.70;;;;;;;;;;5074890;28;20051;-95
2021/10/26 13:43:44;;;;;;;9.15;3.10;;;;;;;;;;5075181;28;20112;-94
2021/10/26 13:46:15;;;;;;;7.38;2.42;;;;;;;;;;5074769;28;20028;-95
2021/10/26 13:48:44;;;;;;;9.70;3.05;;;;;;;;;;5074727;28;20062;-95
2021/10/26 13:51:25;;;;;;;7.00;2.50;;;;;;;;;;5074800;28;20072;-95
2021/10/26 13:53:51;;;;;;;9.00;2.88;;;;;;;;;;5074654;28;20474;-94
2021/10/26 13:56:20;;;;;;;7.00;3.10;;;;;;;;;;5074902;28;20024;-94
2021/10/26 13:58:47;;;;;;;9.10;3.60;;;;;;;;;;5074746;28;20029;-93
2021/10/26 14:01:16;;;;;;;10.38;3.45;;;;;;;;;;5074004;28;20016;-95
2021/10/26 14:03:44;;;;;;;8.35;4.30;;;;;;;;;;5098377;22;20048;-75
2021/10/26 14:06:11;;;;;;;11.82;4.85;;;;;;;;;;5077187;28;20055;-74
2021/10/26 14:08:38;;;;;;;17.80;6.03;;;;;;;;;;5079305;28;20249;-74
2021/10/26 14:11:06;;;;;;;9.27;3.72;;;;;;;;;;5079274;28;20016;-74
2021/10/26 14:13:36;;;;;;;9.80;4.38;;;;;;;;;;5068250;28;20024;-75
2021/10/26 14:16:03;;;;;;;5.30;3.47;;;;;;;;;;5072285;28;20441;-71
2021/10/26 14:18:29;;;;;;;6.10;3.47;;;;;;;;;;5071977;28;20490;-74
2021/10/26 14:20:59;;;;;;;6.57;3.65;;;;;;;;;;5081802;28;20056;-72
2021/10/26 14:23:26;;;;;;;5.65;3.17;;;;;;;;;;5081237;28;20027;-72
2021/10/26 14:25:54;;;;;;;4.55;3.08;;;;;;;;;;5081265;28;20031;-75
2021/10/26 14:28:22;;;;;;;9.57;3.78;;;;;;;;;;5081840;28;20081;-75
2021/10/26 14:30:48;;;;;;;6.93;3.25;;;;;;;;;;5079531;28;20119;-72
2021/10/26 14:33:15;;;;;;;7.78;4.03;;;;;;;;;;5081713;28;20046;-72
2021/10/26 14:35:44;;;;;;;8.25;3.88;;;;;;;;;;5082279;28;20161;-71
2021/10/26 14:38:16;;;;;;;7.55;3.10;;;;;;;;;;5084813;28;20031;-75
2021/10/26 14:40:57;;;;;;;7.15;2.67;;;;;;;;;;5083498;28;20024;-72
2021/10/26 14:56:50;;;;;;;8.20;3.42;;;;;;;;;;5084384;28;20044;-73
2021/10/26 14:59:16;;;;;;;7.90;3.88;;;;;;;;;;5083988;28;20024;-73
2021/10/26 15:01:42;;;;;;;8.43;3.38;;;;;;;;;;5084520;28;20028;-74
2021/10/26 15:04:09;;;;;;;8.30;4.00;;;;;;;;;;5082755;28;20059;-73
2021/10/26 15:06:36;;;;;;;10.32;3.60;;;;;;;;;;5084071;28;20153;-74
2021/10/26 15:09:14;;;;;;;7.47;3.22;;;;;;;;;;5084710;28;20016;-74
2021/10/26 15:11:41;;;;;;;11.07;3.70;;;;;;;;;;5084059;28;20480;-74
2021/10/26 15:14:10;;;;;;;11.73;4.60;;;;;;;;;;5084367;28;20115;-74
2021/10/26 15:16:40;;;;;;;8.52;3.30;;;;;;;;;;5082745;28;20577;-74
2021/10/26 15:19:07;;;;;;;7.60;3.40;;;;;;;;;;5084460;28;20020;-74
2021/10/26 15:21:47;;;;;;;7.53;3.53;;;;;;;;;;5081440;28;20179;-73
2021/10/26 15:24:28;;;;;;;12.82;3.95;;;;;;;;;;5081083;28;20021;-74
2021/10/26 15:35:09;;;;;;;9.93;4.65;;;;;;;;;;5084279;28;20568;-74
2021/10/26 15:37:35;;;;;;;9.70;4.70;;;;;;;;;;5084583;28;20107;-74
2021/10/26 15:40:01;;;;;;;11.40;4.07;;;;;;;;;;5084130;28;20048;-74
2021/10/26 15:42:28;;;;;;;9.55;3.47;;;;;;;;;;5082753;28;20024;-73
2021/10/26 15:44:54;;;;;;;13.48;3.95;;;;;;;;;;5083154;28;20140;-74
2021/10/26 15:47:20;;;;;;;8.57;3.00;;;;;;;;;;5083632;28;20028;-74
2021/10/26 15:49:46;;;;;;;9.00;3.38;;;;;;;;;;5084147;28;20031;-73
2021/10/26 15:52:13;;;;;;;13.10;3.63;;;;;;;;;;5084862;28;20054;-73
2021/10/26 15:54:42;;;;;;;8.43;3.88;;;;;;;;;;5086801;28;20085;-74
2021/10/26 15:57:11;;;;;;;13.02;3.72;;;;;;;;;;5087552;28;20040;-74
2021/10/26 15:59:37;;;;;;;13.05;3.85;;;;;;;;;;5087956;28;20645;-74
2021/10/26 16:02:04;;;;;;;5.85;3.78;;;;;;;;;;5085805;28;20020;-73
2021/10/26 16:04:30;;;;;;;24.00;4.30;;;;;;;;;;5085526;28;20510;-73
2021/10/26 16:06:56;;;;;;;7.80;3.72;;;;;;;;;;5088012;28;20376;-73
2021/10/26 16:09:37;;;;;;;7.72;3.78;;;;;;;;;;5072630;28;20056;-73
2021/10/26 16:12:07;;;;;;;8.35;4.03;;;;;;;;;;5079973;28;20475;-73
2021/10/26 16:14:39;;;;;;;6.32;3.25;;;;;;;;;;5084978;28;20028;-74
2021/10/26 16:17:05;;;;;;;11.52;4.30;;;;;;;;;;5086820;28;20122;-73
2021/10/26 16:19:31;;;;;;;11.18;4.35;;;;;;;;;;5065905;28;20028;-73
2021/10/26 16:21:57;;;;;;;13.70;3.88;;;;;;;;;;5082950;28;20024;-73
2021/10/26 16:24:25;;;;;;;13.43;4.30;;;;;;;;;;5087507;28;20527;-73
2021/10/26 16:26:51;;;;;;;10.88;3.55;;;;;;;;;;5073947;28;20115;-73
2021/10/26 16:29:21;;;;;;;6.82;3.53;;;;;;;;;;5073889;28;20051;-73
2021/10/26 16:31:47;;;;;;;7.63;3.13;;;;;;;;;;5066300;28;20498;-73
2021/10/26 16:34:15;;;;;;;9.63;3.33;;;;;;;;;;5079972;28;20031;-74
2021/10/26 16:36:43;;;;;;;5.40;3.33;;;;;;;;;;5082101;28;20070;-74
2021/10/26 16:39:09;;;;;;;9.10;3.90;;;;;;;;;;5082608;28;20089;-74
2021/10/26 16:41:36;;;;;;;12.88;4.50;;;;;;;;;;5083342;28;20024;-74
2021/10/26 16:49:43;;;;;;;11.48;4.07;;;;;;;;;;5064449;28;20024;-74
2021/10/26 16:52:09;;;;;;;11.38;4.40;;;;;;;;;;5081902;28;20086;-74
2021/10/26 16:54:36;;;;;;;9.32;3.70;;;;;;;;;;5075852;28;20027;-74
2021/10/26 16:57:02;;;;;;;10.25;3.78;;;;;;;;;;5080599;28;20472;-74
2021/10/26 16:59:29;;;;;;;10.80;3.92;;;;;;;;;;5082554;28;20055;-74
2021/10/26 17:02:14;;;;;;;10.40;4.82;;;;;;;;;;5080640;28;20024;-74
2021/10/26 17:04:41;;;;;;;15.82;5.38;;;;;;;;;;5079476;28;20067;-74
2021/10/26 17:07:08;;;;;;;14.98;5.93;;;;;;;;;;5081371;28;20491;-74
2021/10/26 17:09:35;;;;;;;12.02;5.20;;;;;;;;;;5081885;28;20016;-74
2021/10/26 17:12:04;;;;;;;14.15;5.30;;;;;;;;;;5080362;28;20052;-73
2021/10/26 17:14:32;;;;;;;10.18;4.57;;;;;;;;;;5082696;28;20388;-74
2021/10/26 17:16:59;;;;;;;9.00;4.85;;;;;;;;;;5083074;28;20043;-74
2021/10/26 17:19:25;;;;;;;10.38;5.03;;;;;;;;;;5083144;28;20027;-74
2021/10/26 17:21:51;;;;;;;10.32;5.22;;;;;;;;;;5082840;28;20119;-74
2021/10/26 17:24:17;;;;;;;11.15;4.68;;;;;;;;;;5081300;28;20024;-74
2021/10/26 17:26:44;;;;;;;9.82;4.85;;;;;;;;;;5082735;28;20111;-74
2021/10/26 17:29:10;;;;;;;8.35;4.90;;;;;;;;;;5082912;28;20365;-74
2021/10/26 17:31:36;;;;;;;11.52;5.47;;;;;;;;;;5083045;28;20024;-73
2021/10/26 17:34:03;;;;;;;10.70;4.90;;;;;;;;;;5082383;28;20023;-74
2021/10/26 17:36:31;;;;;;;15.38;5.45;;;;;;;;;;5080516;28;20036;-74
2021/10/26 17:39:07;;;;;;;11.43;5.35;;;;;;;;;;5082541;28;20522;-74
2021/10/26 17:41:34;;;;;;;10.85;4.97;;;;;;;;;;5081244;28;20092;-74
2021/10/26 17:44:01;;;;;;;8.77;5.40;;;;;;;;;;5080188;28;20031;-74
2021/10/26 17:46:29;;;;;;;20.10;5.32;;;;;;;;;;5081891;28;20051;-74
2021/10/26 17:48:56;;;;;;;10.45;4.80;;;;;;;;;;5082340;28;20024;-74
2021/10/26 17:51:22;;;;;;;12.55;4.68;;;;;;;;;;5082210;28;20028;-74
2021/10/26 17:53:50;;;;;;;15.90;5.60;;;;;;;;;;5080559;28;20616;-74
2021/10/26 17:56:16;;;;;;;10.85;4.95;;;;;;;;;;5080815;28;20036;-74
2021/10/26 17:58:44;;;;;;;11.27;5.05;;;;;;;;;;5082265;28;20023;-74
2021/10/26 18:01:16;;;;;;;9.35;4.15;;;;;;;;;;5081149;28;20841;-74
2021/10/26 18:03:42;;;;;;;13.10;4.63;;;;;;;;;;5081307;28;20043;-74
2021/10/26 18:06:09;;;;;;;14.30;4.78;;;;;;;;;;5079985;28;20020;-74
2021/10/26 18:08:37;;;;;;;8.40;4.63;;;;;;;;;;5080550;28;20095;-74
2021/10/26 18:11:05;;;;;;;13.65;5.20;;;;;;;;;;5080879;28;20112;-74
2021/10/26 18:13:37;;;;;;;9.95;5.03;;;;;;;;;;5082128;28;20533;-74
2021/10/26 18:16:04;;;;;;;10.93;4.80;;;;;;;;;;5081521;28;20084;-74
2021/10/26 18:18:32;;;;;;;9.63;4.57;;;;;;;;;;5081193;28;20021;-74
2021/10/26 18:20:59;;;;;;;11.10;4.50;;;;;;;;;;5081530;28;20672;-74
2021/10/26 18:23:26;;;;;;;7.53;4.53;;;;;;;;;;5081463;28;20020;-74
2021/10/26 18:25:54;;;;;;;11.10;4.18;;;;;;;;;;5080446;28;20012;-74
2021/10/26 18:28:20;;;;;;;9.65;4.65;;;;;;;;;;5077867;28;20264;-74
2021/10/26 18:30:47;;;;;;;9.70;3.90;;;;;;;;;;5081609;28;20418;-74
2021/10/26 18:33:14;;;;;;;8.60;4.22;;;;;;;;;;5079817;28;20020;-74
2021/10/26 18:35:41;;;;;;;11.50;4.68;;;;;;;;;;5081132;28;20028;-74
2021/10/26 18:38:13;;;;;;;9.75;3.80;;;;;;;;;;5082397;28;20488;-74
2021/10/26 18:40:42;;;;;;;11.02;4.45;;;;;;;;;;5081706;28;20051;-74
2021/10/26 18:43:10;;;;;;;13.00;4.63;;;;;;;;;;5081360;28;20098;-74
2021/10/26 18:45:46;;;;;;;13.40;4.25;;;;;;;;;;5081512;28;20077;-74
2021/10/26 18:48:13;;;;;;;12.13;5.35;;;;;;;;;;5080543;28;20091;-74
2021/10/26 18:50:40;;;;;;;8.00;4.30;;;;;;;;;;5081575;28;20135;-74
2021/10/26 18:53:07;;;;;;;8.60;4.07;;;;;;;;;;5081846;28;20024;-74
2021/10/26 18:55:33;;;;;;;9.90;4.05;;;;;;;;;;5081811;28;20032;-74
2021/10/26 18:58:00;;;;;;;7.85;3.45;;;;;;;;;;5080170;28;20056;-74
2021/10/26 19:00:26;;;;;;;11.57;3.70;;;;;;;;;;5081380;28;20131;-74